createdAt,value
2019-02-19T00:02:19.875Z,67.31
2019-02-19T00:04:51.524Z,67.07
2019-02-19T00:07:23.222Z,67.22
2019-02-19T00:09:55.800Z,67.23
2019-02-19T00:12:27.500Z,67.26
2019-02-19T00:15:07.730Z,67.36
2019-02-19T00:17:32.471Z,67.07
2019-02-19T00:20:04.150Z,66.86
2019-02-19T00:22:36.840Z,68.19
2019-02-19T00:25:08.467Z,68.66
2019-02-19T00:27:40.073Z,68.89
2019-02-19T00:30:11.681Z,68.38
2019-02-19T00:32:43.354Z,68.31
2019-02-19T00:35:15.033Z,67.85
2019-02-19T00:37:46.616Z,67.46
2019-02-19T00:40:18.221Z,67.85
2019-02-19T00:42:49.879Z,67.22
2019-02-19T00:45:21.479Z,67.62
2019-02-19T00:47:53.102Z,68.38
2019-02-19T00:50:24.688Z,68.86
2019-02-19T00:52:56.350Z,69.18
2019-02-19T00:55:27.932Z,69.32
2019-02-19T00:57:59.547Z,68.23
2019-02-19T01:00:31.132Z,68.93
2019-02-19T01:03:02.797Z,68.89
2019-02-19T01:05:34.469Z,69.13
2019-02-19T01:08:06.088Z,69.50
2019-02-19T01:10:37.753Z,69.88
2019-02-19T01:13:09.664Z,69.81
2019-02-19T01:15:41.355Z,68.96
2019-02-19T01:18:13.142Z,68.68
2019-02-19T01:20:44.730Z,68.59
2019-02-19T01:23:16.431Z,68.22
2019-02-19T01:25:48.986Z,68.00
2019-02-19T01:28:20.601Z,67.96
2019-02-19T01:30:52.199Z,68.71
2019-02-19T01:33:23.868Z,69.76
2019-02-19T01:35:55.496Z,69.93
2019-02-19T01:38:27.125Z,70.12
2019-02-19T01:40:58.734Z,69.97
2019-02-19T01:43:30.351Z,69.80
2019-02-19T01:46:01.962Z,69.21
2019-02-19T01:48:33.623Z,68.78
2019-02-19T01:51:05.220Z,68.53
2019-02-19T01:53:36.903Z,68.15
2019-02-19T01:56:08.520Z,67.51
2019-02-19T01:58:40.141Z,67.47
2019-02-19T02:01:12.047Z,67.45
2019-02-19T02:03:43.997Z,67.08
2019-02-19T02:06:15.909Z,67.33
2019-02-19T02:08:49.120Z,67.52
2019-02-19T02:11:20.705Z,67.83
2019-02-19T02:13:53.292Z,68.04
2019-02-19T02:16:24.892Z,67.52
2019-02-19T02:18:56.566Z,68.20
2019-02-19T02:21:28.161Z,68.13
2019-02-19T02:23:59.765Z,68.47
2019-02-19T02:26:31.510Z,68.16
2019-02-19T02:29:03.175Z,67.58
2019-02-19T02:31:34.877Z,67.21
2019-02-19T02:34:06.600Z,66.70
2019-02-19T02:36:38.227Z,66.54
2019-02-19T02:39:09.952Z,66.83
2019-02-19T02:41:41.597Z,66.86
2019-02-19T02:44:13.263Z,67.25
2019-02-19T02:46:44.866Z,67.42
2019-02-19T02:49:16.473Z,68.38
2019-02-19T02:51:48.058Z,68.80
2019-02-19T02:54:19.690Z,69.01
2019-02-19T02:56:51.285Z,69.25
2019-02-19T02:59:22.898Z,69.25
2019-02-19T03:01:54.505Z,69.38
2019-02-19T03:04:26.124Z,69.95
2019-02-19T03:07:16.625Z,70.01
2019-02-19T03:09:48.254Z,69.72
2019-02-19T03:12:19.920Z,69.64
2019-02-19T03:14:51.524Z,69.43
2019-02-19T03:17:23.123Z,69.46
2019-02-19T03:19:54.735Z,69.64
2019-02-19T03:22:26.341Z,69.90
2019-02-19T03:24:58.007Z,69.92
2019-02-19T03:27:29.656Z,69.57
2019-02-19T03:30:01.263Z,69.40
2019-02-19T03:32:33.321Z,69.53
2019-02-19T03:35:05.060Z,69.31
2019-02-19T03:37:36.742Z,68.46
2019-02-19T03:40:08.664Z,69.07
2019-02-19T03:42:40.422Z,68.91
2019-02-19T03:45:12.477Z,68.35
2019-02-19T03:47:44.239Z,68.23
2019-02-19T03:50:16.219Z,68.09
2019-02-19T03:52:47.821Z,68.25
2019-02-19T03:55:19.435Z,68.74
2019-02-19T03:57:51.127Z,69.39
2019-02-19T04:00:22.721Z,69.18
2019-02-19T04:02:54.339Z,68.86
2019-02-19T04:05:26.065Z,68.75
2019-02-19T04:07:57.733Z,69.04
2019-02-19T04:10:29.362Z,69.16
2019-02-19T04:13:00.944Z,69.38
2019-02-19T04:15:32.639Z,69.14
2019-02-19T04:18:04.293Z,68.86
2019-02-19T04:20:35.876Z,68.68
2019-02-19T04:23:07.545Z,68.76
2019-02-19T04:25:39.265Z,68.56
2019-02-19T04:28:11.121Z,68.32
2019-02-19T04:30:43.131Z,68.07
2019-02-19T04:33:14.733Z,67.76
2019-02-19T04:35:46.388Z,68.01
2019-02-19T04:38:17.983Z,68.30
2019-02-19T04:40:49.633Z,69.04
2019-02-19T04:43:21.294Z,69.06
2019-02-19T04:45:52.906Z,69.43
2019-02-19T04:48:24.494Z,68.84
2019-02-19T04:50:56.178Z,68.40
2019-02-19T04:53:27.784Z,67.78
2019-02-19T04:55:59.386Z,68.33
2019-02-19T04:58:31.046Z,67.70
2019-02-19T05:01:02.718Z,67.54
2019-02-19T05:03:34.319Z,68.09
2019-02-19T05:06:05.941Z,68.20
2019-02-19T05:08:38.598Z,68.15
2019-02-19T05:11:10.295Z,68.67
2019-02-19T05:13:43.205Z,69.00
2019-02-19T05:16:14.829Z,69.07
2019-02-19T05:18:46.423Z,68.94
2019-02-19T05:21:18.045Z,68.56
2019-02-19T05:23:49.702Z,68.83
2019-02-19T05:26:21.392Z,69.43
2019-02-19T05:28:53.009Z,69.45
2019-02-19T05:31:24.643Z,68.99
2019-02-19T05:33:56.319Z,68.71
2019-02-19T05:36:28.108Z,68.56
2019-02-19T05:38:59.835Z,68.28
2019-02-19T05:41:31.490Z,68.06
2019-02-19T05:44:03.166Z,68.07
2019-02-19T05:46:34.775Z,67.84
2019-02-19T05:49:06.378Z,67.93
2019-02-19T05:51:37.998Z,67.88
2019-02-19T05:54:09.671Z,67.84
2019-02-19T05:56:41.469Z,68.23
2019-02-19T05:59:13.230Z,67.63
2019-02-19T06:01:44.821Z,68.03
2019-02-19T06:04:16.526Z,67.95
2019-02-19T06:06:48.184Z,68.83
2019-02-19T06:09:19.958Z,69.16
2019-02-19T06:11:51.577Z,69.36
2019-02-19T06:14:23.235Z,69.80
2019-02-19T06:16:58.602Z,69.28
2019-02-19T06:19:28.191Z,69.64
2019-02-19T06:21:59.790Z,69.24
2019-02-19T06:24:31.483Z,69.49
2019-02-19T06:27:03.101Z,68.92
2019-02-19T06:29:34.716Z,68.89
2019-02-19T06:32:06.422Z,68.76
2019-02-19T06:34:38.030Z,69.10
2019-02-19T06:37:09.744Z,69.58
2019-02-19T06:39:41.440Z,69.31
2019-02-19T06:42:13.365Z,68.88
2019-02-19T06:44:44.990Z,68.96
2019-02-19T06:47:16.600Z,69.23
2019-02-19T06:49:48.274Z,68.93
2019-02-19T06:52:19.901Z,69.24
2019-02-19T06:54:51.562Z,69.61
2019-02-19T06:57:24.164Z,69.70
2019-02-19T06:59:55.845Z,69.74
2019-02-19T07:02:58.215Z,70.35
2019-02-19T07:05:29.880Z,69.61
2019-02-19T07:08:01.958Z,70.92
2019-02-19T07:10:33.621Z,70.01
2019-02-19T07:13:05.300Z,70.81
2019-02-19T07:15:36.926Z,70.52
2019-02-19T07:18:08.612Z,70.16
2019-02-19T07:20:40.493Z,70.15
2019-02-19T07:23:12.129Z,70.10
2019-02-19T07:25:43.734Z,69.64
2019-02-19T07:28:15.343Z,69.17
2019-02-19T07:30:46.935Z,69.12
2019-02-19T07:33:18.549Z,68.88
2019-02-19T07:35:50.209Z,68.50
2019-02-19T07:38:21.826Z,68.45
2019-02-19T07:40:53.430Z,68.08
2019-02-19T07:43:25.043Z,67.59
2019-02-19T07:45:56.692Z,67.16
2019-02-19T07:48:28.308Z,66.40
2019-02-19T07:50:59.894Z,66.13
2019-02-19T07:53:31.577Z,65.78
2019-02-19T07:56:03.182Z,64.94
2019-02-19T07:58:34.815Z,64.54
2019-02-19T08:01:06.499Z,64.12
2019-02-19T08:03:38.181Z,63.60
2019-02-19T08:06:09.769Z,63.47
2019-02-19T08:08:41.485Z,62.79
2019-02-19T08:11:13.362Z,62.17
2019-02-19T08:13:44.970Z,61.90
2019-02-19T08:16:16.635Z,61.58
2019-02-19T08:18:48.323Z,61.39
2019-02-19T08:21:21.615Z,60.65
2019-02-19T08:23:53.303Z,60.22
2019-02-19T08:26:24.902Z,60.03
2019-02-19T08:29:04.221Z,59.13
2019-02-19T08:31:29.894Z,59.55
2019-02-19T08:34:01.569Z,59.22
2019-02-19T08:36:33.241Z,58.79
2019-02-19T08:39:05.516Z,58.33
2019-02-19T08:41:37.597Z,58.01
2019-02-19T08:44:09.548Z,57.47
2019-02-19T08:46:41.454Z,57.26
2019-02-19T08:49:13.348Z,56.68
2019-02-19T08:51:45.031Z,56.71
2019-02-19T08:54:16.638Z,55.65
2019-02-19T08:56:48.233Z,55.24
2019-02-19T08:59:19.842Z,54.33
2019-02-19T09:01:51.463Z,54.31
2019-02-19T09:04:23.048Z,54.15
2019-02-19T09:06:54.713Z,53.72
2019-02-19T09:09:26.398Z,53.49
2019-02-19T09:11:58.062Z,53.25
2019-02-19T09:14:29.689Z,52.91
2019-02-19T09:17:01.319Z,52.16
2019-02-19T09:19:32.999Z,51.84
2019-02-19T09:22:04.668Z,51.58
2019-02-19T09:24:36.291Z,51.69
2019-02-19T09:27:07.898Z,50.97
2019-02-19T09:29:39.617Z,51.14
2019-02-19T09:32:11.434Z,50.97
2019-02-19T09:34:43.294Z,50.86
2019-02-19T09:37:14.880Z,49.82
2019-02-19T09:39:46.496Z,50.11
2019-02-19T09:42:18.154Z,49.69
2019-02-19T09:44:49.822Z,49.63
2019-02-19T09:47:21.432Z,49.17
2019-02-19T09:49:53.049Z,48.96
2019-02-19T09:52:24.645Z,48.86
2019-02-19T09:54:56.249Z,48.65
2019-02-19T09:57:27.911Z,48.51
2019-02-19T09:59:59.526Z,48.67
2019-02-19T10:02:31.229Z,48.51
2019-02-19T10:05:03.134Z,48.39
2019-02-19T10:07:34.787Z,48.10
2019-02-19T10:10:08.128Z,48.13
2019-02-19T10:12:39.783Z,48.15
2019-02-19T10:15:12.372Z,48.47
2019-02-19T10:17:44.057Z,48.59
2019-02-19T10:20:16.065Z,48.29
2019-02-19T10:22:47.731Z,48.17
2019-02-19T10:25:19.422Z,47.83
2019-02-19T10:27:51.308Z,47.46
2019-02-19T10:30:22.941Z,47.68
2019-02-19T10:32:54.615Z,47.41
2019-02-19T10:35:26.304Z,47.12
2019-02-19T10:37:57.970Z,46.68
2019-02-19T10:40:29.592Z,47.52
2019-02-19T10:43:01.195Z,47.78
2019-02-19T10:45:32.811Z,47.56
2019-02-19T10:48:04.473Z,47.63
2019-02-19T10:50:36.164Z,47.81
2019-02-19T10:53:07.767Z,47.84
2019-02-19T10:55:39.601Z,47.04
2019-02-19T10:58:11.628Z,47.35
2019-02-19T11:00:43.559Z,47.02
2019-02-19T11:03:15.170Z,46.87
2019-02-19T11:05:46.886Z,47.65
2019-02-19T11:08:18.496Z,47.07
2019-02-19T11:10:51.100Z,47.10
2019-02-19T11:13:22.775Z,47.66
2019-02-19T11:15:54.381Z,47.01
2019-02-19T11:18:28.672Z,46.59
2019-02-19T11:21:00.518Z,46.58
2019-02-19T11:23:33.737Z,46.63
2019-02-19T11:26:05.509Z,46.02
2019-02-19T11:28:37.128Z,46.01
2019-02-19T11:31:08.762Z,46.40
2019-02-19T11:33:40.583Z,46.57
2019-02-19T11:36:12.220Z,46.37
2019-02-19T11:38:43.823Z,45.94
2019-02-19T11:41:15.549Z,46.69
2019-02-19T11:43:47.172Z,46.73
2019-02-19T11:46:18.785Z,46.82
2019-02-19T11:48:50.391Z,47.26
2019-02-19T11:51:21.990Z,46.53
2019-02-19T11:53:53.602Z,47.04
2019-02-19T11:56:25.234Z,46.90
2019-02-19T11:58:56.904Z,47.33
2019-02-19T12:01:28.557Z,46.81
2019-02-19T12:04:01.627Z,47.35
2019-02-19T12:06:33.305Z,47.66
2019-02-19T12:09:05.712Z,47.47
2019-02-19T12:11:37.799Z,48.12
2019-02-19T12:14:09.616Z,47.89
2019-02-19T12:16:41.514Z,47.41
2019-02-19T12:19:13.393Z,47.94
2019-02-19T12:21:46.401Z,47.97
2019-02-19T12:24:18.002Z,48.27
2019-02-19T12:26:49.687Z,48.36
2019-02-19T12:29:21.291Z,48.02
2019-02-19T12:31:52.979Z,48.92
2019-02-19T12:34:24.584Z,48.60
2019-02-19T12:36:56.306Z,48.73
2019-02-19T12:39:27.991Z,48.68
2019-02-19T12:41:59.628Z,49.05
2019-02-19T12:44:31.303Z,48.47
2019-02-19T12:47:02.962Z,48.78
2019-02-19T12:49:34.639Z,48.76
2019-02-19T12:52:06.268Z,49.09
2019-02-19T12:54:37.875Z,48.93
2019-02-19T12:57:09.654Z,49.26
2019-02-19T12:59:41.508Z,49.37
2019-02-19T13:02:13.446Z,49.66
2019-02-19T13:04:45.047Z,49.33
2019-02-19T13:07:16.760Z,49.59
2019-02-19T13:09:48.373Z,49.69
2019-02-19T13:12:19.991Z,49.59
2019-02-19T13:14:51.615Z,49.64
2019-02-19T13:17:23.300Z,49.97
2019-02-19T13:19:55.002Z,49.99
2019-02-19T13:22:26.635Z,49.63
2019-02-19T13:24:58.258Z,50.62
2019-02-19T13:27:29.867Z,51.34
2019-02-19T13:30:01.488Z,51.36
2019-02-19T13:32:33.162Z,51.62
2019-02-19T13:35:08.923Z,52.07
2019-02-19T13:37:41.772Z,52.16
2019-02-19T13:40:14.153Z,51.77
2019-02-19T13:42:45.968Z,52.17
2019-02-19T13:45:17.718Z,52.46
2019-02-19T13:47:49.440Z,52.89
2019-02-19T13:50:21.534Z,52.95
2019-02-19T13:53:17.938Z,53.00
2019-02-19T13:55:52.230Z,53.03
2019-02-19T13:58:23.937Z,53.26
2019-02-19T14:00:55.542Z,53.41
2019-02-19T14:03:27.210Z,53.61
2019-02-19T14:05:58.797Z,54.37
2019-02-19T14:08:30.410Z,55.28
2019-02-19T14:11:02.009Z,55.75
2019-02-19T14:13:33.711Z,56.26
2019-02-19T14:16:18.158Z,56.78
2019-02-19T14:18:57.874Z,56.76
2019-02-19T14:21:51.009Z,57.24
2019-02-19T14:24:38.330Z,57.47
2019-02-19T14:27:31.823Z,57.73
2019-02-19T14:30:21.574Z,57.70
2019-02-19T14:33:09.221Z,58.07
2019-02-19T14:35:58.070Z,58.11
2019-02-19T14:39:03.823Z,57.98
2019-02-19T14:41:49.313Z,58.17
2019-02-19T14:44:41.196Z,58.57
2019-02-19T14:47:34.700Z,58.09
2019-02-19T14:50:35.526Z,58.23
2019-02-19T14:53:34.766Z,58.20
2019-02-19T14:56:34.078Z,58.15
2019-02-19T14:59:23.237Z,57.90
2019-02-19T15:02:12.255Z,58.05
2019-02-19T15:05:08.460Z,58.05
2019-02-19T15:08:04.966Z,58.18
2019-02-19T15:11:03.660Z,58.18
2019-02-19T15:13:48.286Z,58.30
2019-02-19T15:16:37.463Z,58.57
2019-02-19T15:19:20.175Z,58.52
2019-02-19T15:22:16.678Z,58.90
2019-02-19T15:25:09.969Z,59.17
2019-02-19T15:28:00.798Z,59.37
2019-02-19T15:31:00.269Z,59.45
2019-02-19T15:34:08.980Z,59.19
2019-02-19T15:36:58.494Z,59.44
2019-02-19T15:40:03.882Z,59.25
2019-02-19T15:42:54.002Z,59.33
2019-02-19T15:45:43.745Z,59.19
2019-02-19T15:48:32.859Z,59.07
2019-02-19T15:51:17.890Z,59.11
2019-02-19T15:54:07.131Z,59.41
2019-02-19T15:56:57.347Z,59.76
2019-02-19T15:59:46.595Z,59.96
2019-02-19T16:02:39.935Z,60.23
2019-02-19T16:05:30.964Z,60.38
2019-02-19T16:08:24.045Z,60.41
2019-02-19T16:11:21.656Z,60.72
2019-02-19T16:14:02.557Z,60.80
2019-02-19T16:16:43.763Z,60.83
2019-02-19T16:19:32.981Z,60.77
2019-02-19T16:22:20.586Z,60.81
2019-02-19T16:25:09.725Z,60.91
2019-02-19T16:28:18.642Z,60.88
2019-02-19T16:31:09.236Z,60.98
2019-02-19T16:34:08.672Z,61.14
2019-02-19T16:36:49.132Z,61.25
2019-02-19T16:39:38.268Z,61.46
2019-02-19T16:42:27.035Z,61.63
2019-02-19T16:45:26.617Z,61.41
2019-02-19T16:48:15.583Z,61.63
2019-02-19T16:51:12.207Z,61.57
2019-02-19T16:54:02.795Z,61.80
2019-02-19T16:56:56.226Z,61.95
2019-02-19T16:59:50.474Z,62.09
2019-02-19T17:02:43.865Z,62.20
2019-02-19T17:05:34.638Z,62.23
2019-02-19T17:08:15.550Z,62.17
2019-02-19T17:11:16.078Z,62.49
2019-02-19T17:14:07.134Z,62.69
2019-02-19T17:16:54.419Z,62.63
2019-02-19T17:19:56.843Z,62.97
2019-02-19T17:22:40.823Z,62.90
2019-02-19T17:25:37.372Z,62.75
2019-02-19T17:28:25.687Z,62.74
2019-02-19T17:31:17.837Z,62.79
2019-02-19T17:34:11.597Z,62.96
2019-02-19T17:37:04.887Z,62.89
2019-02-19T17:39:59.536Z,62.90
2019-02-19T17:42:51.636Z,63.08
2019-02-19T17:45:38.502Z,62.91
2019-02-19T17:48:27.623Z,63.06
2019-02-19T17:51:14.779Z,62.80
2019-02-19T17:54:08.004Z,62.75
2019-02-19T17:57:13.454Z,62.83
2019-02-19T18:00:04.728Z,63.11
2019-02-19T18:03:10.107Z,63.07
2019-02-19T18:06:08.653Z,62.90
2019-02-19T18:09:01.878Z,62.96
2019-02-19T18:11:52.799Z,62.91
2019-02-19T18:14:44.329Z,62.98
2019-02-19T18:17:29.437Z,63.32
2019-02-19T18:20:01.247Z,63.00
2019-02-19T18:22:34.656Z,62.89
2019-02-19T18:25:07.168Z,62.87
2019-02-19T18:27:38.862Z,62.84
2019-02-19T18:30:10.489Z,62.94
2019-02-19T18:32:42.166Z,62.77
2019-02-19T18:35:14.397Z,62.73
2019-02-19T18:37:46.227Z,62.64
2019-02-19T18:40:18.163Z,62.67
2019-02-19T18:42:50.146Z,62.63
2019-02-19T18:45:22.565Z,62.75
2019-02-19T18:47:54.228Z,62.65
2019-02-19T18:50:26.398Z,62.48
2019-02-19T18:52:58.510Z,62.47
2019-02-19T18:55:33.423Z,62.25
2019-02-19T18:58:05.440Z,62.14
2019-02-19T19:00:37.120Z,62.43
2019-02-19T19:03:08.996Z,62.06
2019-02-19T19:05:40.840Z,62.07
2019-02-19T19:08:12.665Z,62.04
2019-02-19T19:10:44.562Z,61.84
2019-02-19T19:13:16.353Z,61.84
2019-02-19T19:15:48.322Z,61.74
2019-02-19T19:18:21.205Z,61.61
2019-02-19T19:20:55.654Z,61.78
2019-02-19T19:23:28.018Z,61.74
2019-02-19T19:25:59.714Z,61.54
2019-02-19T19:28:31.612Z,61.71
2019-02-19T19:31:03.603Z,61.73
2019-02-19T19:33:35.920Z,61.80
2019-02-19T19:36:07.871Z,61.90
2019-02-19T19:38:39.687Z,62.03
2019-02-19T19:41:12.782Z,62.02
2019-02-19T19:43:44.585Z,62.27
2019-02-19T19:46:16.548Z,62.32
2019-02-19T19:48:49.454Z,62.28
2019-02-19T19:51:21.509Z,62.35
2019-02-19T19:53:53.848Z,62.15
2019-02-19T19:56:27.102Z,62.26
2019-02-19T19:58:58.924Z,62.06
2019-02-19T20:01:32.053Z,62.11
2019-02-19T20:04:04.584Z,62.00
2019-02-19T20:06:36.722Z,61.85
2019-02-19T20:09:08.788Z,61.80
2019-02-19T20:11:42.049Z,61.74
2019-02-19T20:14:14.364Z,61.83
2019-02-19T20:16:46.319Z,61.95
2019-02-19T20:19:18.947Z,62.02
2019-02-19T20:21:51.087Z,61.84
2019-02-19T20:24:23.545Z,61.99
2019-02-19T20:26:56.285Z,62.18
2019-02-19T20:29:28.944Z,62.44
2019-02-19T20:32:01.052Z,62.48
2019-02-19T20:34:32.958Z,62.50
2019-02-19T20:37:05.065Z,62.76
2019-02-19T20:39:37.746Z,63.27
2019-02-19T20:42:10.913Z,63.55
2019-02-19T20:44:44.063Z,63.67
2019-02-19T20:47:16.591Z,64.07
2019-02-19T20:49:48.243Z,64.19
2019-02-19T20:52:20.546Z,64.34
2019-02-19T20:54:52.248Z,64.31
2019-02-19T20:57:24.307Z,64.22
2019-02-19T20:59:56.021Z,64.40
2019-02-19T21:02:30.490Z,64.63
2019-02-19T21:05:02.279Z,64.75
2019-02-19T21:07:35.518Z,64.95
2019-02-19T21:10:09.705Z,65.46
2019-02-19T21:12:44.785Z,65.55
2019-02-19T21:15:16.576Z,65.53
2019-02-19T21:17:48.856Z,65.59
2019-02-19T21:20:22.106Z,65.62
2019-02-19T21:22:55.100Z,65.39
2019-02-19T21:25:31.056Z,65.63
2019-02-19T21:28:00.771Z,65.60
2019-02-19T21:30:32.866Z,65.47
2019-02-19T21:33:05.167Z,65.42
2019-02-19T21:35:37.297Z,65.49
2019-02-19T21:38:09.323Z,65.48
2019-02-19T21:40:41.078Z,65.54
2019-02-19T21:43:12.839Z,65.42
2019-02-19T21:45:44.605Z,65.31
2019-02-19T21:48:17.837Z,65.42
2019-02-19T21:50:51.159Z,65.37
2019-02-19T21:53:23.509Z,65.25
2019-02-19T21:55:55.200Z,65.29
2019-02-19T21:58:26.941Z,65.30
2019-02-19T22:00:59.228Z,65.04
2019-02-19T22:03:31.258Z,65.09
2019-02-19T22:06:06.760Z,65.03
2019-02-19T22:08:39.679Z,65.01
2019-02-19T22:11:11.368Z,65.04
2019-02-19T22:13:43.287Z,65.09
2019-02-19T22:16:14.968Z,64.99
2019-02-19T22:18:46.767Z,64.88
2019-02-19T22:21:37.394Z,64.83
2019-02-19T22:24:09.506Z,64.71
2019-02-19T22:26:41.240Z,64.50
2019-02-19T22:29:12.938Z,64.58
2019-02-19T22:31:44.711Z,65.32
2019-02-19T22:34:16.908Z,65.23
2019-02-19T22:36:50.136Z,65.50
2019-02-19T22:39:21.828Z,66.48
2019-02-19T22:41:53.510Z,70.52
2019-02-19T22:44:25.190Z,71.63
2019-02-19T22:46:58.712Z,71.55
2019-02-19T22:49:30.396Z,72.30
2019-02-19T22:52:02.063Z,72.73
2019-02-19T22:54:43.993Z,72.59
2019-02-19T22:57:16.386Z,72.96
2019-02-19T22:59:48.043Z,74.01
2019-02-19T23:02:24.106Z,76.82
2019-02-19T23:04:56.376Z,77.30
2019-02-19T23:07:28.140Z,77.32
2019-02-19T23:10:01.300Z,77.25
2019-02-19T23:12:34.263Z,77.90
2019-02-19T23:15:06.130Z,77.51
2019-02-19T23:17:38.355Z,77.52
2019-02-19T23:20:10.022Z,77.99
2019-02-19T23:22:41.768Z,77.37
2019-02-19T23:25:14.048Z,78.02
2019-02-19T23:27:47.120Z,77.45
2019-02-19T23:30:18.785Z,77.79
2019-02-19T23:32:50.451Z,77.67
2019-02-19T23:35:38.729Z,77.20
2019-02-19T23:38:10.394Z,76.72
2019-02-19T23:40:42.050Z,77.08
2019-02-19T23:43:13.632Z,77.08
2019-02-19T23:45:45.469Z,76.92
2019-02-19T23:48:17.119Z,76.29
2019-02-19T23:50:48.783Z,76.30
2019-02-19T23:53:20.439Z,75.70
2019-02-19T23:55:52.012Z,75.87
2019-02-19T23:58:23.665Z,75.38
